createdAt,value
2024-03-27T00:00:54.817Z,8.27
2024-03-27T00:01:54.816Z,8.21
2024-03-27T00:02:54.805Z,8.14
2024-03-27T00:03:54.805Z,8.10
2024-03-27T00:04:54.805Z,8.13
2024-03-27T00:05:54.795Z,8.07
2024-03-27T00:06:54.793Z,8.13
2024-03-27T00:07:54.787Z,7.99
2024-03-27T00:08:54.784Z,8.07
2024-03-27T00:09:54.776Z,8.00
2024-03-27T00:10:54.787Z,7.99
2024-03-27T00:11:54.773Z,8.06
2024-03-27T00:12:54.779Z,7.99
2024-03-27T00:13:54.763Z,7.89
2024-03-27T00:14:54.758Z,7.89
2024-03-27T00:15:54.768Z,7.94
2024-03-27T00:16:54.751Z,7.88
2024-03-27T00:17:54.750Z,7.94
2024-03-27T00:18:54.741Z,7.92
2024-03-27T00:19:54.735Z,7.76
2024-03-27T00:20:54.731Z,7.76
2024-03-27T00:21:54.725Z,7.82
2024-03-27T00:22:54.730Z,7.81
2024-03-27T00:23:54.720Z,7.77
2024-03-27T00:24:54.714Z,7.74
2024-03-27T00:25:54.707Z,7.71
2024-03-27T00:26:54.706Z,7.71
2024-03-27T00:27:54.721Z,7.79
2024-03-27T00:28:54.708Z,7.69
2024-03-27T00:29:54.691Z,7.69
2024-03-27T00:30:54.705Z,7.73
2024-03-27T00:31:54.694Z,7.71
2024-03-27T00:32:54.680Z,7.79
2024-03-27T00:33:54.680Z,7.82
2024-03-27T00:34:54.668Z,7.73
2024-03-27T00:35:54.668Z,7.70
2024-03-27T00:36:54.663Z,7.70
2024-03-27T00:37:54.656Z,7.62
2024-03-27T00:38:54.652Z,7.57
2024-03-27T00:39:54.647Z,7.60
2024-03-27T00:40:54.654Z,7.55
2024-03-27T00:41:54.639Z,7.50
2024-03-27T00:42:54.637Z,7.48
2024-03-27T00:43:54.630Z,7.45
2024-03-27T00:44:54.625Z,7.45
2024-03-27T00:45:54.620Z,7.48
2024-03-27T00:46:54.615Z,7.42
2024-03-27T00:47:54.611Z,7.48
2024-03-27T00:48:54.604Z,7.39
2024-03-27T00:49:54.616Z,7.41
2024-03-27T00:50:54.597Z,7.33
2024-03-27T00:51:54.592Z,7.27
2024-03-27T00:52:54.587Z,7.19
2024-03-27T00:53:54.591Z,7.29
2024-03-27T00:55:54.575Z,7.30
2024-03-27T00:56:54.579Z,7.29
2024-03-27T00:57:54.563Z,7.24
2024-03-27T00:58:54.565Z,7.29
2024-03-27T00:59:54.559Z,7.18
2024-03-27T01:00:54.550Z,7.21
2024-03-27T01:01:54.548Z,7.26
2024-03-27T01:02:54.543Z,7.26
2024-03-27T01:03:54.596Z,7.19
2024-03-27T01:04:54.531Z,7.21
2024-03-27T01:05:54.527Z,7.19
2024-03-27T01:06:54.519Z,7.26
2024-03-27T01:07:54.692Z,7.24
2024-03-27T01:08:54.513Z,7.12
2024-03-27T01:09:54.509Z,7.19
2024-03-27T01:10:54.502Z,7.18
2024-03-27T01:11:54.508Z,7.16
2024-03-27T01:12:54.492Z,7.09
2024-03-27T01:13:54.489Z,7.11
2024-03-27T01:14:54.482Z,7.07
2024-03-27T01:15:54.483Z,7.04
2024-03-27T01:16:54.494Z,7.09
2024-03-27T01:17:54.470Z,7.11
2024-03-27T01:18:54.460Z,7.09
2024-03-27T01:19:54.460Z,7.01
2024-03-27T01:20:54.465Z,7.05
2024-03-27T01:21:54.449Z,7.00
2024-03-27T01:22:54.447Z,7.12
2024-03-27T01:23:54.438Z,6.94
2024-03-27T01:24:54.449Z,6.96
2024-03-27T01:25:54.434Z,6.99
2024-03-27T01:26:54.428Z,6.89
2024-03-27T01:27:54.418Z,6.94
2024-03-27T01:28:54.425Z,6.91
2024-03-27T01:29:54.414Z,6.99
2024-03-27T01:30:54.402Z,6.97
2024-03-27T01:31:54.405Z,6.93
2024-03-27T01:32:54.393Z,6.99
2024-03-27T01:33:54.396Z,6.97
2024-03-27T01:34:54.382Z,6.93
2024-03-27T01:35:54.376Z,6.94
2024-03-27T01:36:54.373Z,6.81
2024-03-27T01:37:54.490Z,6.86
2024-03-27T01:38:54.362Z,6.90
2024-03-27T01:39:54.356Z,6.87
2024-03-27T01:40:54.354Z,6.87
2024-03-27T01:41:54.352Z,6.81
2024-03-27T01:42:54.346Z,6.81
2024-03-27T01:43:54.337Z,6.83
2024-03-27T01:44:54.333Z,6.81
2024-03-27T01:45:54.328Z,6.87
2024-03-27T01:46:54.339Z,6.81
2024-03-27T01:47:54.319Z,6.83
2024-03-27T01:48:54.311Z,6.75
2024-03-27T01:49:54.311Z,6.68
2024-03-27T01:50:54.299Z,6.71
2024-03-27T01:51:54.297Z,6.81
2024-03-27T01:52:54.292Z,6.79
2024-03-27T01:53:54.302Z,6.69
2024-03-27T01:54:54.282Z,6.65
2024-03-27T01:55:54.278Z,6.64
2024-03-27T01:56:54.272Z,6.63
2024-03-27T01:57:54.267Z,6.63
2024-03-27T01:58:54.259Z,6.61
2024-03-27T01:59:54.258Z,6.63
2024-03-27T02:00:54.299Z,6.73
2024-03-27T02:01:54.249Z,6.57
2024-03-27T02:02:54.237Z,6.68
2024-03-27T02:03:54.247Z,6.58
2024-03-27T02:04:54.228Z,6.64
2024-03-27T02:05:54.223Z,6.60
2024-03-27T02:06:54.217Z,6.65
2024-03-27T02:07:54.227Z,6.61
2024-03-27T02:08:54.207Z,6.61
2024-03-27T02:09:54.203Z,6.65
2024-03-27T02:10:54.197Z,6.64
2024-03-27T02:11:54.200Z,6.61
2024-03-27T02:12:54.193Z,6.73
2024-03-27T02:13:54.186Z,6.69
2024-03-27T02:14:54.176Z,6.64
2024-03-27T02:15:56.366Z,6.65
2024-03-27T02:16:57.829Z,6.65
2024-03-27T02:17:54.160Z,6.68
2024-03-27T02:18:54.153Z,6.65
2024-03-27T02:19:54.148Z,6.65
2024-03-27T02:20:54.143Z,6.58
2024-03-27T02:21:54.142Z,6.60
2024-03-27T02:22:54.132Z,6.75
2024-03-27T02:23:54.130Z,6.71
2024-03-27T02:24:54.121Z,6.75
2024-03-27T02:25:54.119Z,6.76
2024-03-27T02:26:54.110Z,6.72
2024-03-27T02:27:54.107Z,6.73
2024-03-27T02:28:54.101Z,6.68
2024-03-27T02:29:54.094Z,6.68
2024-03-27T02:30:54.092Z,6.73
2024-03-27T02:31:54.087Z,6.75
2024-03-27T02:32:54.079Z,6.71
2024-03-27T02:33:54.077Z,6.64
2024-03-27T02:34:54.067Z,6.61
2024-03-27T02:35:54.068Z,6.61
2024-03-27T02:36:54.059Z,6.69
2024-03-27T02:37:54.067Z,6.60
2024-03-27T02:38:54.059Z,6.61
2024-03-27T02:39:54.045Z,6.63
2024-03-27T02:40:54.040Z,6.63
2024-03-27T02:41:54.033Z,6.64
2024-03-27T02:42:54.025Z,6.61
2024-03-27T02:43:54.022Z,6.63
2024-03-27T02:44:54.016Z,6.64
2024-03-27T02:45:54.009Z,6.57
2024-03-27T02:46:54.009Z,6.60
2024-03-27T02:47:54.000Z,6.57
2024-03-27T02:48:54.001Z,6.54
2024-03-27T02:49:53.989Z,6.51
2024-03-27T02:50:53.985Z,6.55
2024-03-27T02:51:53.980Z,6.57
2024-03-27T02:52:53.977Z,6.57
2024-03-27T02:53:53.967Z,6.54
2024-03-27T02:54:53.961Z,6.53
2024-03-27T02:55:53.967Z,6.53
2024-03-27T02:56:53.951Z,6.53
2024-03-27T02:57:53.958Z,6.51
2024-03-27T02:58:53.958Z,6.54
2024-03-27T02:59:53.943Z,6.54
2024-03-27T03:00:55.080Z,6.54
2024-03-27T03:01:53.934Z,6.55
2024-03-27T03:02:53.919Z,6.58
2024-03-27T03:03:53.929Z,6.69
2024-03-27T03:04:53.910Z,6.61
2024-03-27T03:05:53.901Z,6.65
2024-03-27T03:06:53.901Z,6.60
2024-03-27T03:07:53.892Z,6.61
2024-03-27T03:08:53.886Z,6.72
2024-03-27T03:09:53.881Z,6.71
2024-03-27T03:10:53.875Z,6.72
2024-03-27T03:12:53.863Z,6.73
2024-03-27T03:13:53.862Z,6.78
2024-03-27T03:14:53.868Z,6.78
2024-03-27T03:15:53.869Z,6.75
2024-03-27T03:16:53.872Z,6.79
2024-03-27T03:17:53.837Z,6.79
2024-03-27T03:18:53.829Z,6.73
2024-03-27T03:19:53.828Z,6.72
2024-03-27T03:20:53.822Z,6.76
2024-03-27T03:21:53.830Z,6.75
2024-03-27T03:22:53.818Z,6.78
2024-03-27T03:23:53.804Z,6.79
2024-03-27T03:24:53.804Z,6.86
2024-03-27T03:25:53.795Z,6.86
2024-03-27T03:26:53.816Z,6.83
2024-03-27T03:27:53.797Z,7.00
2024-03-27T03:28:53.781Z,6.86
2024-03-27T03:29:53.772Z,6.91
2024-03-27T03:30:53.817Z,6.83
2024-03-27T03:31:53.773Z,6.93
2024-03-27T03:32:53.756Z,6.93
2024-03-27T03:33:53.763Z,6.96
2024-03-27T03:34:53.744Z,6.87
2024-03-27T03:35:53.744Z,6.91
2024-03-27T03:36:53.764Z,6.90
2024-03-27T03:37:53.734Z,6.83
2024-03-27T03:38:53.729Z,6.97
2024-03-27T03:39:53.721Z,6.93
2024-03-27T03:40:53.712Z,6.94
2024-03-27T03:41:53.757Z,6.83
2024-03-27T03:42:53.702Z,6.86
2024-03-27T03:43:53.699Z,6.86
2024-03-27T03:44:53.693Z,6.83
2024-03-27T03:45:53.684Z,6.82
2024-03-27T03:46:53.693Z,6.86
2024-03-27T03:47:53.685Z,6.79
2024-03-27T03:48:53.683Z,6.78
2024-03-27T03:49:53.668Z,6.71
2024-03-27T03:50:53.658Z,6.73
2024-03-27T03:51:53.654Z,6.69
2024-03-27T03:52:53.665Z,6.71
2024-03-27T03:53:53.648Z,6.75
2024-03-27T03:54:53.638Z,6.65
2024-03-27T03:55:53.635Z,6.63
2024-03-27T03:56:53.629Z,6.55
2024-03-27T03:57:53.639Z,6.53
2024-03-27T03:58:53.615Z,6.48
2024-03-27T03:59:53.611Z,6.46
2024-03-27T04:00:53.614Z,6.45
2024-03-27T04:01:53.603Z,6.38
2024-03-27T04:02:53.612Z,6.40
2024-03-27T04:04:53.601Z,6.32
2024-03-27T04:05:53.579Z,6.20
2024-03-27T04:06:53.578Z,6.27
2024-03-27T04:07:53.565Z,6.27
2024-03-27T04:08:53.568Z,6.35
2024-03-27T04:09:53.558Z,6.21
2024-03-27T04:10:53.565Z,6.13
2024-03-27T04:11:53.549Z,6.20
2024-03-27T04:12:53.542Z,6.10
2024-03-27T04:13:53.540Z,6.16
2024-03-27T04:14:53.539Z,6.08
2024-03-27T04:15:53.525Z,6.06
2024-03-27T04:16:53.523Z,6.13
2024-03-27T04:17:53.518Z,6.06
2024-03-27T04:18:53.507Z,6.14
2024-03-27T04:19:53.502Z,5.98
2024-03-27T04:20:53.497Z,5.93
2024-03-27T04:21:53.490Z,5.96
2024-03-27T04:22:53.484Z,5.95
2024-03-27T04:23:53.489Z,5.98
2024-03-27T04:24:53.485Z,5.92
2024-03-27T04:26:03.777Z,5.95
2024-03-27T04:26:53.459Z,6.03
2024-03-27T04:27:53.457Z,5.96
2024-03-27T04:28:53.455Z,6.03
2024-03-27T04:29:53.446Z,5.99
2024-03-27T04:30:53.439Z,5.98
2024-03-27T04:31:53.433Z,5.99
2024-03-27T04:32:53.428Z,5.98
2024-03-27T04:33:53.422Z,5.96
2024-03-27T04:34:53.416Z,5.93
2024-03-27T04:35:53.411Z,5.92
2024-03-27T04:36:53.409Z,5.92
2024-03-27T04:37:53.399Z,5.98
2024-03-27T04:38:53.393Z,6.01
2024-03-27T04:39:53.385Z,5.93
2024-03-27T04:40:53.405Z,5.93
2024-03-27T04:41:53.376Z,5.81
2024-03-27T04:42:53.369Z,5.80
2024-03-27T04:43:53.361Z,5.77
2024-03-27T04:44:53.365Z,5.77
2024-03-27T04:45:53.353Z,5.67
2024-03-27T04:46:53.346Z,5.69
2024-03-27T04:47:53.346Z,5.73
2024-03-27T04:48:53.342Z,5.59
2024-03-27T04:49:53.329Z,5.59
2024-03-27T04:50:53.329Z,5.70
2024-03-27T04:51:53.322Z,5.63
2024-03-27T04:52:53.308Z,5.58
2024-03-27T04:53:53.308Z,5.65
2024-03-27T04:54:53.308Z,5.66
2024-03-27T04:55:53.316Z,5.63
2024-03-27T04:56:53.290Z,5.63
2024-03-27T04:57:53.280Z,5.63
2024-03-27T04:58:53.274Z,5.59
2024-03-27T04:59:53.269Z,5.62
2024-03-27T05:00:53.267Z,5.55
2024-03-27T05:01:53.258Z,5.56
2024-03-27T05:02:53.253Z,5.60
2024-03-27T05:03:53.252Z,5.58
2024-03-27T05:04:53.241Z,5.62
2024-03-27T05:05:53.233Z,5.59
2024-03-27T05:06:53.280Z,5.66
2024-03-27T05:07:53.225Z,5.66
2024-03-27T05:08:53.219Z,5.58
2024-03-27T05:09:53.205Z,5.67
2024-03-27T05:10:53.216Z,5.59
2024-03-27T05:11:53.198Z,5.55
2024-03-27T05:12:53.198Z,5.51
2024-03-27T05:13:53.297Z,5.51
2024-03-27T05:14:53.186Z,5.56
2024-03-27T05:15:53.185Z,5.59
2024-03-27T05:16:53.172Z,5.51
2024-03-27T05:17:53.158Z,5.49
2024-03-27T05:18:53.152Z,5.41
2024-03-27T05:19:53.146Z,5.45
2024-03-27T05:20:53.143Z,5.44
2024-03-27T05:21:53.135Z,5.47
2024-03-27T05:22:53.130Z,5.44
2024-03-27T05:23:53.138Z,5.33
2024-03-27T05:24:53.118Z,5.40
2024-03-27T05:25:53.107Z,5.33
2024-03-27T05:26:53.103Z,5.47
2024-03-27T05:27:53.091Z,5.42
2024-03-27T05:28:53.150Z,5.37
2024-03-27T05:29:53.088Z,5.42
2024-03-27T05:30:53.122Z,5.37
2024-03-27T05:31:53.084Z,5.41
2024-03-27T05:33:53.066Z,5.48
2024-03-27T05:34:53.067Z,5.47
2024-03-27T05:35:53.052Z,5.42
2024-03-27T05:36:53.047Z,5.48
2024-03-27T05:37:53.034Z,5.40
2024-03-27T05:38:53.030Z,5.58
2024-03-27T05:39:53.024Z,5.37
2024-03-27T05:40:53.026Z,5.40
2024-03-27T05:41:53.012Z,5.47
2024-03-27T05:42:53.005Z,5.48
2024-03-27T05:43:53.000Z,5.49
2024-03-27T05:44:52.991Z,5.52
2024-03-27T05:45:52.989Z,5.51
2024-03-27T05:46:52.978Z,5.55
2024-03-27T05:47:52.978Z,5.56
2024-03-27T05:48:52.968Z,5.70
2024-03-27T05:49:52.968Z,5.78
2024-03-27T05:50:52.966Z,5.78
2024-03-27T05:51:53.050Z,5.83
2024-03-27T05:52:52.942Z,5.92
2024-03-27T05:53:52.950Z,5.96
2024-03-27T05:54:52.943Z,5.99
2024-03-27T05:55:52.926Z,6.10
2024-03-27T05:56:52.920Z,6.06
2024-03-27T05:57:52.916Z,6.06
2024-03-27T05:58:55.561Z,6.17
2024-03-27T05:59:52.915Z,6.28
2024-03-27T06:00:52.913Z,6.38
2024-03-27T06:01:52.901Z,6.43
2024-03-27T06:02:52.884Z,6.54
2024-03-27T06:03:52.882Z,6.58
2024-03-27T06:04:52.874Z,6.63
2024-03-27T06:05:52.862Z,6.71
2024-03-27T06:06:52.859Z,6.73
2024-03-27T06:07:52.855Z,6.87
2024-03-27T06:08:52.853Z,6.97
2024-03-27T06:09:52.847Z,6.93
2024-03-27T06:10:52.841Z,6.97
2024-03-27T06:11:52.831Z,7.11
2024-03-27T06:12:52.824Z,7.05
2024-03-27T06:13:52.825Z,7.11
2024-03-27T06:14:52.819Z,7.19
2024-03-27T06:15:52.815Z,7.19
2024-03-27T06:16:52.815Z,7.23
2024-03-27T06:17:52.798Z,7.29
2024-03-27T06:18:52.791Z,7.29
2024-03-27T06:19:52.786Z,7.41
2024-03-27T06:20:52.779Z,7.50
2024-03-27T06:21:52.789Z,7.51
2024-03-27T06:22:52.820Z,7.47
2024-03-27T06:23:52.899Z,7.42
2024-03-27T06:24:52.789Z,7.70
2024-03-27T06:25:52.825Z,7.54
2024-03-27T06:26:55.123Z,7.58
2024-03-27T06:27:52.856Z,7.62
2024-03-27T06:28:52.867Z,7.54
2024-03-27T06:29:52.819Z,7.71
2024-03-27T06:30:52.815Z,7.58
2024-03-27T06:31:52.733Z,7.62
2024-03-27T06:32:52.721Z,7.70
2024-03-27T06:33:52.730Z,7.70
2024-03-27T06:34:52.712Z,7.74
2024-03-27T06:35:52.716Z,7.77
2024-03-27T06:36:52.706Z,7.84
2024-03-27T06:37:52.700Z,7.77
2024-03-27T06:38:52.691Z,7.81
2024-03-27T06:39:52.705Z,7.84
2024-03-27T06:40:52.693Z,7.81
2024-03-27T06:41:52.692Z,7.88
2024-03-27T06:42:52.683Z,7.91
2024-03-27T06:43:52.679Z,7.94
2024-03-27T06:44:52.664Z,8.03
2024-03-27T06:45:52.697Z,7.96
2024-03-27T06:46:52.653Z,7.99
2024-03-27T06:47:52.657Z,7.99
2024-03-27T06:48:52.662Z,7.99
2024-03-27T06:49:52.640Z,8.09
2024-03-27T06:50:52.653Z,8.00
2024-03-27T06:51:52.635Z,8.13
2024-03-27T06:54:52.628Z,8.27
2024-03-27T06:55:52.613Z,8.24
2024-03-27T06:56:52.611Z,8.29
2024-03-27T06:57:52.607Z,8.32
2024-03-27T06:58:52.598Z,8.28
2024-03-27T06:59:52.592Z,8.40
2024-03-27T07:00:52.594Z,8.43
2024-03-27T07:01:52.584Z,8.36
2024-03-27T07:02:52.745Z,8.47
2024-03-27T07:03:52.578Z,8.45
2024-03-27T07:04:52.587Z,8.47
2024-03-27T07:05:52.575Z,8.54
2024-03-27T07:06:52.563Z,8.64
2024-03-27T07:07:52.560Z,8.67
2024-03-27T07:08:52.557Z,8.63
2024-03-27T07:09:52.907Z,8.60
2024-03-27T07:10:52.552Z,8.73
2024-03-27T07:11:52.544Z,8.75
2024-03-27T07:12:52.546Z,8.70
2024-03-27T07:13:54.240Z,8.80
2024-03-27T07:14:52.532Z,8.73
2024-03-27T07:15:52.526Z,8.78
2024-03-27T07:16:52.526Z,8.76
2024-03-27T07:18:52.524Z,8.86
2024-03-27T07:19:52.513Z,8.86
2024-03-27T07:20:52.504Z,8.86
2024-03-27T07:21:52.506Z,8.93
2024-03-27T07:22:52.502Z,8.85
2024-03-27T07:23:52.497Z,8.96
2024-03-27T07:24:52.490Z,8.97
2024-03-27T07:25:52.490Z,9.08
2024-03-27T07:26:52.489Z,9.01
2024-03-27T07:27:52.478Z,8.97
2024-03-27T07:28:52.476Z,9.04
2024-03-27T07:29:52.471Z,9.01
2024-03-27T07:31:02.443Z,9.03
2024-03-27T07:31:52.469Z,9.06
2024-03-27T07:32:52.510Z,9.03
2024-03-27T07:33:52.464Z,9.06
2024-03-27T07:34:52.451Z,9.01
2024-03-27T07:35:52.449Z,9.00
2024-03-27T07:36:52.442Z,9.06
2024-03-27T07:37:52.443Z,8.98
2024-03-27T07:38:52.939Z,9.17
2024-03-27T07:39:52.471Z,9.13
2024-03-27T07:40:52.427Z,9.01
2024-03-27T07:41:52.429Z,9.12
2024-03-27T07:42:52.419Z,9.06
2024-03-27T07:43:52.422Z,9.19
2024-03-27T07:44:52.411Z,9.19
2024-03-27T07:45:52.463Z,9.17
2024-03-27T07:46:52.408Z,9.20
2024-03-27T07:47:52.403Z,9.23
2024-03-27T07:48:52.401Z,9.30
2024-03-27T07:49:52.397Z,9.34
2024-03-27T07:50:52.385Z,9.35
2024-03-27T07:51:52.388Z,9.42
2024-03-27T07:52:53.092Z,9.48
2024-03-27T07:53:52.428Z,9.50
2024-03-27T07:54:52.470Z,9.55
2024-03-27T07:55:52.373Z,9.50
2024-03-27T07:56:52.380Z,9.52
2024-03-27T07:57:52.367Z,9.59
2024-03-27T07:58:52.370Z,9.59
2024-03-27T07:59:52.361Z,9.58
2024-03-27T08:00:52.363Z,9.63
2024-03-27T08:01:52.355Z,9.70
2024-03-27T08:03:52.351Z,9.73
2024-03-27T08:04:52.348Z,9.81
2024-03-27T08:05:52.355Z,9.78
2024-03-27T08:06:54.151Z,9.85
2024-03-27T08:07:52.330Z,9.91
2024-03-27T08:08:52.324Z,9.85
2024-03-27T08:09:52.332Z,9.93
2024-03-27T08:10:52.425Z,9.91
2024-03-27T08:11:52.317Z,9.95
2024-03-27T08:12:52.427Z,9.99
2024-03-27T08:13:52.320Z,9.92
2024-03-27T08:14:52.334Z,10.09
2024-03-27T08:15:52.402Z,10.07
2024-03-27T08:16:52.296Z,10.14
2024-03-27T08:17:52.295Z,10.06
2024-03-27T08:18:52.319Z,10.20
2024-03-27T08:19:52.285Z,10.17
2024-03-27T08:20:52.287Z,10.18
2024-03-27T08:21:52.284Z,10.04
2024-03-27T08:22:52.381Z,10.04
2024-03-27T08:24:52.267Z,10.20
2024-03-27T08:25:52.267Z,10.17
2024-03-27T08:26:52.259Z,10.20
2024-03-27T08:27:52.313Z,10.14
2024-03-27T08:28:52.257Z,10.20
2024-03-27T08:29:52.336Z,10.28
2024-03-27T08:30:52.310Z,10.20
2024-03-27T08:31:52.551Z,10.24
2024-03-27T08:32:52.340Z,10.26
2024-03-27T08:33:52.326Z,10.29
2024-03-27T08:34:52.331Z,10.31
2024-03-27T08:35:52.340Z,10.29
2024-03-27T08:38:00.133Z,10.44
2024-03-27T08:38:52.333Z,10.44
2024-03-27T08:39:52.330Z,10.43
2024-03-27T08:40:52.321Z,10.49
2024-03-27T08:41:52.330Z,10.63
2024-03-27T08:42:52.293Z,10.55
2024-03-27T08:43:52.325Z,10.57
2024-03-27T08:45:52.289Z,10.54
2024-03-27T08:46:52.313Z,10.72
2024-03-27T08:47:52.302Z,10.81
2024-03-27T08:49:52.453Z,10.90
2024-03-27T08:50:52.492Z,10.84
2024-03-27T08:51:52.290Z,10.91
2024-03-27T08:52:52.297Z,10.90
2024-03-27T08:53:52.800Z,11.05
2024-03-27T08:54:52.309Z,11.02
2024-03-27T08:55:52.295Z,11.03
2024-03-27T08:56:52.384Z,10.98
2024-03-27T08:58:52.625Z,11.11
2024-03-27T08:59:52.169Z,11.17
2024-03-27T09:00:52.173Z,11.35
2024-03-27T09:01:52.163Z,11.27
2024-03-27T09:02:52.156Z,11.26
2024-03-27T09:03:52.296Z,11.30
2024-03-27T09:04:52.151Z,11.33
2024-03-27T09:05:52.163Z,11.42
2024-03-27T09:06:52.252Z,11.42
2024-03-27T09:07:52.159Z,11.54
2024-03-27T09:08:52.156Z,11.67
2024-03-27T09:09:52.196Z,11.69
2024-03-27T09:10:52.150Z,11.74
2024-03-27T09:11:52.144Z,11.77
2024-03-27T09:12:52.148Z,11.70
2024-03-27T09:13:52.137Z,11.69
2024-03-27T09:14:52.184Z,11.69
2024-03-27T09:16:52.234Z,11.51
2024-03-27T09:17:52.170Z,11.51
2024-03-27T09:18:52.142Z,11.56
2024-03-27T09:19:52.124Z,11.45
2024-03-27T09:20:52.121Z,11.38
2024-03-27T09:22:52.125Z,11.56
2024-03-27T09:23:52.218Z,11.67
2024-03-27T09:24:52.183Z,11.75
2024-03-27T09:25:52.119Z,11.81
2024-03-27T09:26:52.175Z,11.79
2024-03-27T09:27:52.119Z,11.69
2024-03-27T09:28:52.118Z,11.66
2024-03-27T09:29:52.113Z,11.64
2024-03-27T09:30:52.113Z,11.49
2024-03-27T09:31:52.109Z,11.48
2024-03-27T09:32:52.102Z,11.53
2024-03-27T09:33:52.102Z,11.53
2024-03-27T09:34:52.100Z,11.54
2024-03-27T09:35:52.104Z,11.54
2024-03-27T09:36:52.109Z,11.59
2024-03-27T09:37:52.095Z,11.59
2024-03-27T09:38:52.098Z,11.60
2024-03-27T09:39:52.101Z,11.48
2024-03-27T09:40:52.100Z,11.60
2024-03-27T09:41:52.096Z,11.63
2024-03-27T09:42:52.092Z,11.59
2024-03-27T09:43:52.088Z,11.48
2024-03-27T09:44:52.089Z,11.49
2024-03-27T09:45:52.086Z,11.48
2024-03-27T09:46:52.082Z,11.51
2024-03-27T09:48:52.088Z,11.70
2024-03-27T09:49:52.077Z,11.74
2024-03-27T09:50:52.078Z,11.67
2024-03-27T09:51:52.075Z,11.70
2024-03-27T09:52:52.081Z,11.64
2024-03-27T09:53:52.075Z,11.72
2024-03-27T09:54:52.078Z,11.70
2024-03-27T09:55:52.067Z,11.74
2024-03-27T09:56:52.063Z,11.78
2024-03-27T09:57:52.065Z,11.75
2024-03-27T09:58:52.064Z,11.78
2024-03-27T09:59:52.061Z,11.84
2024-03-27T10:00:52.071Z,11.78
2024-03-27T10:01:52.059Z,11.84
2024-03-27T10:02:52.059Z,11.87
2024-03-27T10:03:52.067Z,11.82
2024-03-27T10:04:52.057Z,11.84
2024-03-27T10:05:52.058Z,11.88
2024-03-27T10:06:52.051Z,11.85
2024-03-27T10:07:52.055Z,11.79
2024-03-27T10:08:52.060Z,11.78
2024-03-27T10:09:52.050Z,11.75
2024-03-27T10:10:52.048Z,11.72
2024-03-27T10:11:52.246Z,11.75
2024-03-27T10:12:52.162Z,11.70
2024-03-27T10:13:52.143Z,11.67
2024-03-27T10:14:52.057Z,11.69
2024-03-27T10:15:52.042Z,11.74
2024-03-27T10:16:52.053Z,11.78
2024-03-27T10:17:52.041Z,11.77
2024-03-27T10:18:52.056Z,11.81
2024-03-27T10:19:52.038Z,11.84
2024-03-27T10:20:52.038Z,11.64
2024-03-27T10:21:52.042Z,11.51
2024-03-27T10:22:52.030Z,11.59
2024-03-27T10:23:52.031Z,11.60
2024-03-27T10:24:52.031Z,11.53
2024-03-27T10:25:52.050Z,11.59
2024-03-27T10:26:52.031Z,11.70
2024-03-27T10:27:52.042Z,11.70
2024-03-27T10:28:52.028Z,11.78
2024-03-27T10:29:52.044Z,11.84
2024-03-27T10:30:52.024Z,11.90
2024-03-27T10:31:52.022Z,11.94
2024-03-27T10:32:52.034Z,11.94
2024-03-27T10:33:52.018Z,11.82
2024-03-27T10:35:01.987Z,11.94
2024-03-27T10:35:52.027Z,11.90
2024-03-27T10:36:52.015Z,11.96
2024-03-27T10:37:52.033Z,11.88
2024-03-27T10:38:52.022Z,11.96
2024-03-27T10:39:52.014Z,11.78
2024-03-27T10:40:52.016Z,11.75
2024-03-27T10:41:52.058Z,11.66
2024-03-27T10:42:52.005Z,11.59
2024-03-27T10:43:52.019Z,11.60
2024-03-27T10:44:52.953Z,11.69
2024-03-27T10:45:52.005Z,11.63
2024-03-27T10:46:52.006Z,11.79
2024-03-27T10:47:52.003Z,11.74
2024-03-27T10:48:52.006Z,11.72
2024-03-27T10:49:52.017Z,11.67
2024-03-27T10:50:52.013Z,11.77
2024-03-27T10:52:51.997Z,12.08
2024-03-27T10:53:52.003Z,12.15
2024-03-27T10:54:52.024Z,12.05
2024-03-27T10:55:52.043Z,11.84
2024-03-27T10:56:52.040Z,11.90
2024-03-27T10:57:52.026Z,12.03
2024-03-27T10:58:52.007Z,11.97
2024-03-27T10:59:52.003Z,11.94
2024-03-27T11:00:52.027Z,12.11
2024-03-27T11:01:51.993Z,12.21
2024-03-27T11:02:51.992Z,12.21
2024-03-27T11:03:52.072Z,12.11
2024-03-27T11:04:52.340Z,12.01
2024-03-27T11:05:52.090Z,11.66
2024-03-27T11:06:51.986Z,11.69
2024-03-27T11:07:52.002Z,11.79
2024-03-27T11:08:51.984Z,11.88
2024-03-27T11:09:51.982Z,11.88
2024-03-27T11:10:51.981Z,11.77
2024-03-27T11:11:51.986Z,11.93
2024-03-27T11:12:51.979Z,11.82
2024-03-27T11:13:51.982Z,11.84
2024-03-27T11:14:51.985Z,11.77
2024-03-27T11:15:51.985Z,11.93
2024-03-27T11:16:51.986Z,12.01
2024-03-27T11:17:51.983Z,12.01
2024-03-27T11:19:51.996Z,12.05
2024-03-27T11:20:51.976Z,12.00
2024-03-27T11:21:51.981Z,12.03
2024-03-27T11:22:51.970Z,11.93
2024-03-27T11:24:51.976Z,11.78
2024-03-27T11:25:51.966Z,11.74
2024-03-27T11:26:51.964Z,11.81
2024-03-27T11:27:52.040Z,11.69
2024-03-27T11:28:51.966Z,11.66
2024-03-27T11:29:51.960Z,11.64
2024-03-27T11:30:52.011Z,11.66
2024-03-27T11:31:51.958Z,11.56
2024-03-27T11:32:51.964Z,11.66
2024-03-27T11:33:51.986Z,11.70
2024-03-27T11:34:51.971Z,11.81
2024-03-27T11:36:51.984Z,11.72
2024-03-27T11:37:51.949Z,11.56
2024-03-27T11:38:51.953Z,11.56
2024-03-27T11:39:51.957Z,11.63
2024-03-27T11:40:51.954Z,11.67
2024-03-27T11:41:51.966Z,11.66
2024-03-27T11:42:51.957Z,11.87
2024-03-27T11:43:51.951Z,11.87
2024-03-27T11:44:51.967Z,11.79
2024-03-27T11:45:51.975Z,11.79
2024-03-27T11:46:51.942Z,11.74
2024-03-27T11:47:51.946Z,11.63
2024-03-27T11:48:51.957Z,11.78
2024-03-27T11:49:51.952Z,11.93
2024-03-27T11:50:51.936Z,11.79
2024-03-27T11:51:51.966Z,11.85
2024-03-27T11:52:51.934Z,11.94
2024-03-27T11:53:51.941Z,11.94
2024-03-27T11:54:52.032Z,11.94
2024-03-27T11:55:52.459Z,11.97
2024-03-27T11:56:51.942Z,11.78
2024-03-27T11:57:51.973Z,11.75
2024-03-27T11:58:51.925Z,11.84
2024-03-27T11:59:51.932Z,11.82
2024-03-27T12:00:51.959Z,11.78
2024-03-27T12:01:51.929Z,11.72
2024-03-27T12:02:51.920Z,11.69
2024-03-27T12:03:51.938Z,11.51
2024-03-27T12:04:51.927Z,11.49
2024-03-27T12:05:51.941Z,11.46
2024-03-27T12:06:51.942Z,11.41
2024-03-27T12:07:51.933Z,11.53
2024-03-27T12:08:51.924Z,11.51
2024-03-27T12:09:51.924Z,11.49
2024-03-27T12:10:51.923Z,11.60
2024-03-27T12:11:51.921Z,11.74
2024-03-27T12:12:51.931Z,11.78
2024-03-27T12:13:51.926Z,11.78
2024-03-27T12:14:51.911Z,11.66
2024-03-27T12:15:51.956Z,11.62
2024-03-27T12:16:51.911Z,11.38
2024-03-27T12:17:51.905Z,11.27
2024-03-27T12:18:51.957Z,11.26
2024-03-27T12:19:51.907Z,11.24
2024-03-27T12:20:51.906Z,11.24
2024-03-27T12:21:51.927Z,11.24
2024-03-27T12:22:51.902Z,11.26
2024-03-27T12:23:51.905Z,11.33
2024-03-27T12:24:51.924Z,11.27
2024-03-27T12:25:51.906Z,11.30
2024-03-27T12:26:51.898Z,11.21
2024-03-27T12:27:51.942Z,11.24
2024-03-27T12:28:51.894Z,11.26
2024-03-27T12:29:51.922Z,11.13
2024-03-27T12:30:51.949Z,11.02
2024-03-27T12:31:51.931Z,10.90
2024-03-27T12:32:51.893Z,10.81
2024-03-27T12:33:51.935Z,10.65
2024-03-27T12:34:51.905Z,10.49
2024-03-27T12:35:51.896Z,10.49
2024-03-27T12:36:51.981Z,10.44
2024-03-27T12:37:51.885Z,10.43
2024-03-27T12:38:51.887Z,10.46
2024-03-27T12:39:51.953Z,10.51
2024-03-27T12:40:51.879Z,10.65
2024-03-27T12:41:51.880Z,10.63
2024-03-27T12:42:51.902Z,10.58
2024-03-27T12:43:51.873Z,10.66
2024-03-27T12:44:51.873Z,10.63
2024-03-27T12:45:51.924Z,10.63
2024-03-27T12:46:51.916Z,10.55
2024-03-27T12:47:51.865Z,10.63
2024-03-27T12:49:51.863Z,10.68
2024-03-27T12:50:51.902Z,10.65
2024-03-27T12:51:51.978Z,10.65
2024-03-27T12:52:51.855Z,10.57
2024-03-27T12:53:51.852Z,10.65
2024-03-27T12:54:51.896Z,10.55
2024-03-27T12:55:51.848Z,10.49
2024-03-27T12:56:51.874Z,10.43
2024-03-27T12:57:51.880Z,10.46
2024-03-27T12:58:51.859Z,10.42
2024-03-27T12:59:51.841Z,10.52
2024-03-27T13:00:52.448Z,10.36
2024-03-27T13:01:51.834Z,10.58
2024-03-27T13:02:51.833Z,10.47
2024-03-27T13:03:51.842Z,10.51
2024-03-27T13:04:51.832Z,10.38
2024-03-27T13:05:51.838Z,10.43
2024-03-27T13:06:51.837Z,10.44
2024-03-27T13:07:51.824Z,10.54
2024-03-27T13:08:51.825Z,10.60
2024-03-27T13:09:51.870Z,10.46
2024-03-27T13:10:51.821Z,10.69
2024-03-27T13:11:51.819Z,10.72
2024-03-27T13:12:51.872Z,10.91
2024-03-27T13:13:51.906Z,10.98
2024-03-27T13:14:51.887Z,11.03
2024-03-27T13:15:51.823Z,11.03
2024-03-27T13:17:51.802Z,10.94
2024-03-27T13:18:51.807Z,10.90
2024-03-27T13:19:51.809Z,10.84
2024-03-27T13:20:51.793Z,10.76
2024-03-27T13:21:51.804Z,10.60
2024-03-27T13:22:51.789Z,10.63
2024-03-27T13:23:51.813Z,10.65
2024-03-27T13:25:51.793Z,10.60
2024-03-27T13:26:51.785Z,10.57
2024-03-27T13:27:51.786Z,10.60
2024-03-27T13:28:51.811Z,10.60
2024-03-27T13:29:51.781Z,10.66
2024-03-27T13:30:51.796Z,10.58
2024-03-27T13:31:51.773Z,10.66